Time;durP1;ratioP1;P1;durP2;ratioP2;P2;SDS_P1;SDS_P2;PMS_P1;PMS_P2;Temp;Humidity;BMP_temperature;BMP_pressure;BME280_temperature;BME280_humidity;BME280_pressure;Samples;Min_cycle;Max_cycle;Signal;HPM_P1;HPM_P2
2022/12/15 00:39:58;;;;;;;83.03;32.03;;;;;;;-2.68;83.80;97205.25;1715325;83;25592;-68
2022/12/15 00:42:19;;;;;;;86.65;34.70;;;;;;;-2.66;84.08;97211.14;1715171;83;25602;-67
2022/12/15 00:44:45;;;;;;;87.78;33.33;;;;;;;-2.67;84.12;97214.38;1715384;83;25670;-66
2022/12/15 00:47:12;;;;;;;88.50;33.70;;;;;;;-2.68;83.96;97218.66;1715385;83;25896;-68
2022/12/15 01:20:19;;;;;;;103.70;38.75;;;;;;;-2.39;84.54;97257.08;1715454;83;25632;-65
2022/12/15 01:22:49;;;;;;;84.60;36.33;;;;;;;-2.41;84.51;97255.22;1715443;83;25905;-65
2022/12/15 01:25:19;;;;;;;95.87;37.90;;;;;;;-2.40;84.82;97264.87;1716259;83;25405;-65
2022/12/15 01:27:46;;;;;;;96.90;39.23;;;;;;;-2.42;84.86;97257.09;1715724;83;25762;-66
2022/12/15 01:30:17;;;;;;;91.65;38.30;;;;;;;-2.38;85.07;97257.37;1715407;83;25756;-65
2022/12/15 01:32:44;;;;;;;81.63;32.67;;;;;;;-2.40;84.92;97269.72;1715367;83;28060;-64
2022/12/15 01:35:11;;;;;;;102.45;40.05;;;;;;;-2.42;85.00;97277.20;1715336;83;25661;-64
2022/12/15 01:37:38;;;;;;;94.15;37.20;;;;;;;-2.42;84.98;97268.38;1715785;83;25653;-65
2022/12/15 01:42:52;;;;;;;83.45;35.15;;;;;;;-2.42;85.13;97279.10;1715580;83;25386;-64
2022/12/15 01:45:33;;;;;;;78.70;34.08;;;;;;;-2.38;85.27;97277.50;1715607;83;27772;-65
2022/12/15 01:48:10;;;;;;;83.95;34.13;;;;;;;-2.36;85.16;97271.87;1715794;83;25742;-64
2022/12/15 01:50:47;;;;;;;91.95;36.25;;;;;;;-2.38;85.05;97280.70;1715707;83;25660;-64
2022/12/15 01:53:15;;;;;;;81.35;32.55;;;;;;;-2.37;85.14;97275.60;1715666;83;25707;-64
2022/12/15 01:55:43;;;;;;;77.75;33.55;;;;;;;-2.32;85.20;97287.70;1715882;83;25655;-65
2022/12/15 01:58:14;;;;;;;73.87;32.13;;;;;;;-2.32;85.13;97275.63;1715499;82;27455;-65
2022/12/15 02:00:40;;;;;;;77.50;32.33;;;;;;;-2.33;85.14;97280.18;1715847;83;25618;-64
2022/12/15 02:03:08;;;;;;;75.50;31.02;;;;;;;-2.32;85.26;97276.97;1715412;83;25453;-65
2022/12/15 02:05:36;;;;;;;68.65;29.30;;;;;;;-2.31;85.28;97277.23;1715717;83;26452;-64
2022/12/15 02:08:03;;;;;;;70.57;29.77;;;;;;;-2.31;85.26;97275.38;1715774;83;25709;-64
2022/12/15 02:11:09;;;;;;;80.90;36.40;;;;;;;-2.30;85.27;97274.29;1715620;83;28607;-64
2022/12/15 02:13:56;;;;;;;81.97;31.93;;;;;;;-2.30;85.32;97275.63;1634392;87;26427;-65
2022/12/15 02:17:02;;;;;;;71.65;27.65;;;;;;;-2.31;85.32;97282.08;1626709;87;25810;-64
2022/12/15 02:19:52;;;;;;;82.42;31.00;;;;;;;-2.32;85.36;97289.05;1634289;87;27977;-64
2022/12/15 02:23:02;;;;;;;72.37;30.30;;;;;;;-2.32;85.42;97287.70;1582469;90;25769;-65
2022/12/15 02:25:45;;;;;;;84.35;33.05;;;;;;;-2.30;85.57;97293.63;1582431;90;27428;-65
2022/12/15 02:28:35;;;;;;;72.27;31.02;;;;;;;-2.29;85.48;97291.20;1582239;90;25831;-65
2022/12/15 02:34:06;;;;;;;74.07;30.35;;;;;;;-2.24;85.49;97305.18;1582483;90;25566;-66
2022/12/15 02:36:36;;;;;;;83.17;34.85;;;;;;;-2.24;85.59;97311.36;1573998;90;25691;-69
2022/12/15 02:39:05;;;;;;;78.70;34.80;;;;;;;-2.23;85.48;97315.65;1582454;90;27998;-66
2022/12/15 02:41:42;;;;;;;80.83;32.85;;;;;;;-2.19;85.67;97312.70;1582678;90;25612;-66
2022/12/15 02:44:16;;;;;;;74.80;31.70;;;;;;;-2.17;85.38;97311.92;1582394;90;25804;-64
2022/12/15 02:47:13;;;;;;;79.70;33.40;;;;;;;-2.20;85.25;97311.10;1582274;90;25941;-68
2022/12/15 02:49:47;;;;;;;80.55;34.27;;;;;;;-2.18;85.46;97314.86;1653489;86;25717;-67
2022/12/15 02:52:40;;;;;;;81.70;33.40;;;;;;;-2.19;85.46;97320.76;1652950;86;27481;-71
2022/12/15 02:55:34;;;;;;;77.53;32.42;;;;;;;-2.17;85.42;97325.86;1652796;86;25567;-68
2022/12/15 02:58:21;;;;;;;84.55;36.05;;;;;;;-2.16;85.57;97337.68;1652805;86;25664;-67
2022/12/15 03:00:55;;;;;;;94.07;35.78;;;;;;;-2.12;85.50;97341.18;1733534;82;25661;-64
2022/12/15 03:03:22;;;;;;;88.15;35.48;;;;;;;-2.12;85.46;97345.20;1734382;82;25758;-68
2022/12/15 03:05:53;;;;;;;89.35;36.83;;;;;;;-2.13;85.59;97348.97;1733984;82;27372;-64
2022/12/15 03:08:20;;;;;;;;;;;;;;;-2.13;85.45;97346.28;1736548;82;25653;-67
2022/12/15 03:10:50;;;;;;;92.47;35.70;;;;;;;-2.13;85.66;97349.76;1733940;82;25735;-67
2022/12/15 03:13:16;;;;;;;110.08;43.55;;;;;;;-2.11;85.67;97348.97;1733912;82;25764;-66
2022/12/15 03:15:43;;;;;;;119.20;43.48;;;;;;;-2.08;85.63;97350.31;1733995;82;25451;-66
2022/12/15 03:18:09;;;;;;;103.55;41.33;;;;;;;-2.03;85.73;97351.69;1734016;82;29455;-68
2022/12/15 03:20:36;;;;;;;108.30;43.87;;;;;;;-2.00;85.59;97347.13;1734343;82;25384;-69
2022/12/15 03:23:02;;;;;;;101.97;42.27;;;;;;;-2.00;85.36;97349.81;1733986;82;25653;-69
2022/12/15 03:25:29;;;;;;;107.07;42.00;;;;;;;-1.98;85.51;97353.58;1733856;82;25757;-68
2022/12/15 03:27:55;;;;;;;104.40;41.02;;;;;;;-1.95;85.45;97361.11;1733982;82;25420;-71
2022/12/15 03:30:22;;;;;;;101.22;40.90;;;;;;;-1.94;85.37;97357.34;1733959;82;27364;-67
2022/12/15 03:32:48;;;;;;;102.58;41.48;;;;;;;-1.91;85.54;97362.19;1733831;82;25475;-66
2022/12/15 03:35:15;;;;;;;104.72;42.80;;;;;;;-1.95;85.04;97364.61;1733944;82;25598;-75
2022/12/15 03:37:41;;;;;;;92.95;40.75;;;;;;;-1.94;85.39;97364.05;1734045;82;26542;-63
2022/12/15 03:40:12;;;;;;;99.95;41.65;;;;;;;-1.92;85.33;97374.83;1733917;82;25437;-63
2022/12/15 03:42:48;;;;;;;88.92;37.00;;;;;;;-1.95;85.22;97384.75;1734221;82;27401;-65
2022/12/15 03:45:25;;;;;;;81.37;36.73;;;;;;;-1.99;85.21;97380.16;1734102;82;25573;-68
2022/12/15 03:47:52;;;;;;;84.28;37.17;;;;;;;-1.99;85.32;97390.35;1734290;82;25435;-64
2022/12/15 03:50:22;;;;;;;91.72;37.15;;;;;;;-2.04;85.21;97399.19;1733893;82;25660;-66
2022/12/15 03:52:58;;;;;;;84.05;35.95;;;;;;;-1.99;85.80;97398.96;1734507;82;25661;-63
2022/12/15 03:55:25;;;;;;;84.77;35.23;;;;;;;-1.92;85.82;97403.02;1734291;82;28088;-63
2022/12/15 03:57:52;;;;;;;88.85;38.13;;;;;;;-1.84;85.92;97396.86;1733774;82;27167;-63
2022/12/15 04:00:20;;;;;;;95.00;38.83;;;;;;;-1.80;85.81;97397.94;1733670;82;25742;-63
2022/12/15 04:02:48;;;;;;;96.00;39.03;;;;;;;-1.80;85.35;97406.81;1733758;82;25949;-63
2022/12/15 04:05:27;;;;;;;103.30;41.42;;;;;;;-1.78;85.63;97411.37;1733421;82;25500;-62
2022/12/15 04:07:56;;;;;;;84.95;38.13;;;;;;;-1.79;85.15;97419.16;1733422;82;29536;-63
2022/12/15 04:10:25;;;;;;;89.75;38.38;;;;;;;-1.82;85.39;97417.00;1733687;82;25641;-63
2022/12/15 04:13:03;;;;;;;80.92;34.58;;;;;;;-1.74;85.75;97417.56;1733729;82;25424;-63
2022/12/15 04:15:30;;;;;;;99.60;39.40;;;;;;;-1.71;85.52;97421.06;1733764;82;25726;-63
2022/12/15 04:17:57;;;;;;;127.32;45.38;;;;;;;-1.71;85.42;97421.88;1733366;82;25597;-63
2022/12/15 04:20:23;;;;;;;107.70;39.75;;;;;;;-1.69;85.48;97428.33;1733611;82;27664;-63
2022/12/15 04:22:51;;;;;;;94.35;40.00;;;;;;;-1.71;85.10;97432.63;1733355;82;27246;-63
2022/12/15 05:34:15;;;;;;;69.92;29.98;;;;;;;-1.75;85.48;97528.77;1732919;82;25654;-62
2022/12/15 05:36:42;;;;;;;66.17;28.12;;;;;;;-1.77;85.01;97531.71;1732790;82;25813;-62
2022/12/15 05:39:09;;;;;;;70.03;30.43;;;;;;;-1.77;85.37;97536.55;1732477;82;25476;-62
2022/12/15 05:41:35;;;;;;;59.20;27.67;;;;;;;-1.75;85.00;97535.48;1732822;82;27377;-62
2022/12/15 05:44:01;;;;;;;64.67;30.27;;;;;;;-1.74;85.14;97535.22;1732794;82;25731;-62
2022/12/15 05:46:32;;;;;;;66.40;28.00;;;;;;;-1.73;84.82;97546.23;1728743;82;26393;-64
2022/12/15 05:49:11;;;;;;;70.17;29.30;;;;;;;-1.74;84.88;97549.98;1732943;82;26551;-65
2022/12/15 05:51:53;;;;;;;59.30;28.50;;;;;;;-1.77;84.66;97551.33;1732903;82;25686;-64
2022/12/15 05:54:20;;;;;;;57.50;26.85;;;;;;;-1.80;84.84;97558.56;1732578;82;27562;-64
2022/12/15 05:56:47;;;;;;;65.22;29.37;;;;;;;-1.73;85.17;97566.92;1732333;82;25748;-67
2022/12/15 05:59:14;;;;;;;66.00;30.70;;;;;;;-1.71;84.96;97575.52;1732464;82;25446;-65
2022/12/15 06:01:41;;;;;;;69.37;30.37;;;;;;;-1.71;84.79;97574.17;1718966;82;26317;-64
2022/12/15 06:04:11;;;;;;;72.35;31.55;;;;;;;-1.74;84.50;97572.00;1718428;83;25602;-65
2022/12/15 06:06:38;;;;;;;73.92;32.93;;;;;;;-1.75;84.58;97579.80;1718551;83;27379;-64
2022/12/15 06:09:05;;;;;;;92.78;42.83;;;;;;;-1.79;84.54;97588.89;1718300;83;25586;-65
2022/12/15 06:11:31;;;;;;;70.80;32.67;;;;;;;-1.78;84.68;97598.04;1718197;83;25425;-64
2022/12/15 06:13:58;;;;;;;73.92;35.50;;;;;;;-1.79;84.35;97599.11;1718177;83;25810;-63
2022/12/15 06:16:26;;;;;;;72.97;34.67;;;;;;;-1.81;84.45;97603.14;1718393;83;25634;-65
2022/12/15 06:18:57;;;;;;;86.90;42.08;;;;;;;-1.81;84.18;97610.64;1718553;83;27436;-63
2022/12/15 06:21:31;;;;;;;109.52;60.92;;;;;;;-1.80;84.66;97611.45;1718594;83;33120;-63
2022/12/15 06:23:58;;;;;;;99.37;50.38;;;;;;;-1.81;84.12;97608.51;1718592;83;25530;-63
2022/12/15 06:26:32;;;;;;;72.92;34.23;;;;;;;-1.82;84.33;97607.69;1718387;83;25762;-63
2022/12/15 06:29:03;;;;;;;66.60;29.25;;;;;;;-1.81;84.43;97609.85;1718313;83;25410;-63
2022/12/15 06:31:30;;;;;;;64.75;28.98;;;;;;;-1.75;84.41;97615.53;1718424;83;27424;-64
2022/12/15 06:33:58;;;;;;;75.55;34.15;;;;;;;-1.74;84.20;97623.86;1718447;83;25470;-65
2022/12/15 06:36:24;;;;;;;74.60;32.53;;;;;;;-1.73;84.23;97624.13;1718132;83;25409;-63
2022/12/15 06:38:51;;;;;;;75.47;33.00;;;;;;;-1.67;84.25;97633.05;1718457;83;25703;-64
2022/12/15 06:41:21;;;;;;;73.35;32.42;;;;;;;-1.73;83.57;97635.42;1716981;83;25432;-63
2022/12/15 06:43:54;;;;;;;65.05;29.67;;;;;;;-1.79;83.69;97643.95;1682088;85;28006;-72
2022/12/15 06:46:22;;;;;;;59.40;27.00;;;;;;;-1.80;83.74;97651.22;1684412;85;25900;-63
2022/12/15 06:48:48;;;;;;;62.55;28.00;;;;;;;-1.77;83.84;97655.27;1684294;85;25688;-63
2022/12/15 06:51:16;;;;;;;63.10;27.50;;;;;;;-1.74;83.84;97668.70;1684084;85;25695;-63
2022/12/15 06:53:52;;;;;;;72.65;32.83;;;;;;;-1.75;83.74;97659.03;1684456;85;25506;-63
2022/12/15 06:56:23;;;;;;;69.30;31.70;;;;;;;-1.75;83.69;97657.17;1683889;84;26835;-63
2022/12/15 06:58:52;;;;;;;58.65;26.25;;;;;;;-1.74;83.69;97671.39;1684384;84;25669;-73
2022/12/15 07:01:22;;;;;;;61.95;27.82;;;;;;;-1.71;83.69;97674.91;1694659;84;25660;-63
2022/12/15 07:03:48;;;;;;;56.87;26.03;;;;;;;-1.77;83.28;97675.41;1700037;84;27902;-63
2022/12/15 07:06:16;;;;;;;66.85;29.42;;;;;;;-1.78;83.52;97698.77;1700108;84;25674;-63
2022/12/15 07:08:46;;;;;;;58.45;27.52;;;;;;;-1.79;83.67;97698.50;1700098;84;27779;-63
2022/12/15 07:11:13;;;;;;;54.88;24.82;;;;;;;-1.75;83.81;97694.78;1676324;84;25515;-64
2022/12/15 07:13:40;;;;;;;65.08;27.30;;;;;;;-1.71;83.63;97717.36;1700011;84;25582;-64
2022/12/15 07:16:09;;;;;;;60.48;29.67;;;;;;;-1.72;83.36;97714.41;1699778;84;25808;-62
2022/12/15 07:18:35;;;;;;;63.28;27.67;;;;;;;-1.74;83.21;97719.73;1699818;84;25536;-62
2022/12/15 07:21:08;;;;;;;91.95;43.17;;;;;;;-1.71;83.56;97724.60;1699928;84;27530;-65
2022/12/15 07:23:35;;;;;;;72.37;32.95;;;;;;;-1.70;83.12;97720.87;1699985;84;25821;-61
2022/12/15 07:26:06;;;;;;;66.57;29.75;;;;;;;-1.73;83.11;97720.83;1700036;84;25668;-61
2022/12/15 07:28:33;;;;;;;57.65;27.58;;;;;;;-1.75;83.12;97721.64;1700276;84;26531;-60
2022/12/15 07:31:06;;;;;;;56.80;25.25;;;;;;;-1.73;83.23;97730.23;1700227;84;25624;-60
2022/12/15 07:33:34;;;;;;;59.65;25.12;;;;;;;-1.74;83.19;97723.25;1700029;84;28303;-60
2022/12/15 07:36:02;;;;;;;62.30;28.45;;;;;;;-1.70;83.58;97740.46;1700136;84;25691;-60
2022/12/15 07:38:28;;;;;;;60.10;26.60;;;;;;;-1.66;83.32;97739.43;1696164;84;26242;-60
2022/12/15 07:41:01;;;;;;;73.65;32.17;;;;;;;-1.60;83.34;97746.98;1700068;84;25832;-59
2022/12/15 07:43:29;;;;;;;57.40;26.07;;;;;;;-1.59;82.92;97747.26;1699793;84;25734;-60
2022/12/15 07:45:56;;;;;;;101.85;41.25;;;;;;;-1.64;82.71;97750.19;1699878;84;27509;-60
2022/12/15 07:48:24;;;;;;;69.32;30.70;;;;;;;-1.61;82.97;97743.52;1699691;84;25642;-60
2022/12/15 07:50:55;;;;;;;57.20;26.15;;;;;;;-1.66;82.97;97753.69;1700073;84;25422;-61
2022/12/15 07:53:19;;;;;;;84.25;34.78;;;;;;;-1.59;82.96;97747.26;1699160;84;25534;-63
2022/12/15 07:55:54;;;;;;;76.65;31.77;;;;;;;-1.55;83.19;97762.61;1699840;84;25442;-61
2022/12/15 07:58:20;;;;;;;92.12;35.85;;;;;;;-1.53;82.79;97749.74;1698926;84;27967;-60
2022/12/15 08:00:47;;;;;;;82.95;32.98;;;;;;;-1.45;83.25;97761.90;1699637;84;25715;-60
2022/12/15 08:03:13;;;;;;;73.37;30.57;;;;;;;-1.43;82.49;97774.55;1699788;84;25540;-62
2022/12/15 08:05:40;;;;;;;67.08;29.70;;;;;;;-1.46;82.98;97783.66;1699734;84;25754;-60
2022/12/15 08:08:07;;;;;;;69.30;30.65;;;;;;;-1.43;82.93;97777.24;1699779;84;25750;-61
2022/12/15 08:10:33;;;;;;;59.05;27.98;;;;;;;-1.40;82.86;97786.66;1699849;84;27553;-60
2022/12/15 08:13:00;;;;;;;61.15;28.40;;;;;;;-1.48;82.28;97797.34;1700073;84;25782;-60
2022/12/15 08:15:26;;;;;;;79.32;34.40;;;;;;;-1.55;82.83;97794.06;1699808;84;25632;-62
2022/12/15 08:17:52;;;;;;;74.65;32.38;;;;;;;-1.50;83.44;97791.41;1699960;84;26190;-60
2022/12/15 08:20:19;;;;;;;89.72;35.73;;;;;;;-1.42;82.88;97798.19;1699717;84;25667;-60
2022/12/15 08:22:45;;;;;;;67.22;31.37;;;;;;;-1.49;82.65;97813.20;1699813;84;27397;-60
2022/12/15 08:25:12;;;;;;;64.87;29.32;;;;;;;-1.54;82.65;97815.31;1699727;84;25639;-60
2022/12/15 08:27:39;;;;;;;65.15;30.48;;;;;;;-1.55;82.86;97811.53;1699760;84;25660;-60
2022/12/15 08:30:07;;;;;;;70.20;31.42;;;;;;;-1.50;82.92;97807.53;1700091;84;25950;-59
2022/12/15 08:32:33;;;;;;;64.37;30.17;;;;;;;-1.40;83.27;97810.33;1697592;84;25701;-60
2022/12/15 08:35:00;;;;;;;65.65;30.10;;;;;;;-1.30;82.60;97808.77;1698898;84;28159;-59
2022/12/15 08:37:27;;;;;;;58.65;24.18;;;;;;;-1.29;82.28;97821.95;1699644;84;25505;-59
2022/12/15 08:39:53;;;;;;;52.53;23.62;;;;;;;-1.45;80.09;97819.68;1699848;84;25480;-59
2022/12/15 08:42:20;;;;;;;65.17;25.43;;;;;;;-1.49;79.88;97821.79;1700140;84;25714;-59
2022/12/15 08:44:49;;;;;;;96.28;37.88;;;;;;;-1.64;79.47;97825.42;1699795;84;25659;-59
2022/12/15 08:47:15;;;;;;;52.80;23.47;;;;;;;-1.57;80.56;97829.77;1699709;84;27585;-59
2022/12/15 08:49:42;;;;;;;57.20;25.43;;;;;;;-1.57;79.84;97831.12;1699902;84;25614;-59
2022/12/15 08:52:08;;;;;;;57.73;25.23;;;;;;;-1.60;79.87;97837.00;1699802;84;25639;-59
2022/12/15 08:54:35;;;;;;;62.10;26.42;;;;;;;-1.61;79.83;97838.89;1699957;84;26124;-59
2022/12/15 08:57:01;;;;;;;65.28;28.55;;;;;;;-1.62;79.83;97833.22;1699731;84;25676;-59
2022/12/15 08:59:28;;;;;;;103.83;31.15;;;;;;;-1.60;80.28;97832.97;1700379;84;27627;-59
2022/12/15 09:01:54;;;;;;;110.15;38.48;;;;;;;-1.51;79.88;97832.79;1698380;84;25695;-59
2022/12/15 09:04:21;;;;;;;68.67;28.25;;;;;;;-1.52;79.86;97835.21;1698196;84;25453;-60
2022/12/15 09:06:47;;;;;;;87.50;33.58;;;;;;;-1.54;79.28;97846.21;1697928;84;25911;-59
2022/12/15 09:09:14;;;;;;;63.05;27.77;;;;;;;-1.52;79.86;97844.62;1698019;84;25783;-59
2022/12/15 09:11:40;;;;;;;55.92;23.62;;;;;;;-1.42;80.27;97839.33;1698513;84;28120;-60
2022/12/15 09:14:07;;;;;;;56.73;25.12;;;;;;;-1.39;79.35;97837.47;1698006;84;25582;-60
2022/12/15 09:16:33;;;;;;;67.05;26.97;;;;;;;-1.45;79.23;97838.49;1698344;84;25490;-60
2022/12/15 09:19:00;;;;;;;124.33;46.53;;;;;;;-1.45;79.71;97845.73;1698601;84;25791;-60
2022/12/15 09:21:29;;;;;;;115.42;43.98;;;;;;;-1.34;80.38;97851.49;1698257;84;25726;-64
2022/12/15 09:24:02;;;;;;;72.45;32.90;;;;;;;-1.22;80.41;97850.50;1698444;84;27457;-59
2022/12/15 09:26:32;;;;;;;85.07;32.95;;;;;;;-1.05;80.55;97851.19;1698107;84;25728;-61
2022/12/15 09:28:58;;;;;;;65.67;30.45;;;;;;;-1.07;79.08;97849.84;1694050;84;26461;-61
2022/12/15 09:31:32;;;;;;;50.85;22.62;;;;;;;-0.92;80.10;97857.99;1698085;84;25765;-61
2022/12/15 09:34:00;;;;;;;63.92;26.20;;;;;;;-0.98;77.87;97864.95;1697490;84;25491;-59
2022/12/15 09:36:29;;;;;;;51.13;21.60;;;;;;;-1.07;78.02;97849.28;1698340;84;27359;-59
2022/12/15 09:38:56;;;;;;;45.33;20.43;;;;;;;-1.12;77.86;97857.84;1698532;84;25679;-60
2022/12/15 09:41:29;;;;;;;45.75;20.35;;;;;;;-1.14;77.54;97866.17;1698252;84;25437;-59
2022/12/15 09:44:17;;;;;;;55.58;24.32;;;;;;;-1.17;77.57;97864.81;1698421;84;25698;-61
2022/12/15 09:47:14;;;;;;;88.42;37.53;;;;;;;-1.09;78.73;97872.95;1698126;84;25465;-59
2022/12/15 09:50:03;;;;;;;62.55;27.20;;;;;;;-0.93;78.72;97873.05;1698327;84;27548;-60
2022/12/15 09:52:40;;;;;;;57.93;25.50;;;;;;;-0.78;78.32;97874.51;1698038;84;25461;-60
2022/12/15 09:55:30;;;;;;;51.05;22.58;;;;;;;-0.72;77.93;97867.83;1697682;84;25749;-59
2022/12/15 09:58:27;;;;;;;58.73;24.80;;;;;;;-0.82;77.83;97856.45;1696268;84;25682;-60
2022/12/15 10:01:17;;;;;;;81.30;34.03;;;;;;;-0.79;78.00;97859.97;1697987;84;25643;-61
2022/12/15 10:04:16;;;;;;;102.92;35.58;;;;;;;-0.76;78.86;97864.30;1698288;84;29554;-61
2022/12/15 10:07:08;;;;;;;61.92;25.55;;;;;;;-0.80;77.48;97859.70;1697816;84;25623;-61
2022/12/15 10:09:37;;;;;;;48.63;20.75;;;;;;;-1.00;76.47;97861.17;1698558;84;25449;-61
2022/12/15 10:12:24;;;;;;;43.48;20.05;;;;;;;-1.07;76.87;97862.73;1698257;84;25740;-60
2022/12/15 10:15:08;;;;;;;42.15;19.73;;;;;;;-1.16;76.65;97869.64;1696339;84;25647;-61
2022/12/15 10:18:05;;;;;;;49.88;22.13;;;;;;;-1.20;77.12;97868.02;1698029;84;28141;-61
2022/12/15 10:20:32;;;;;;;54.15;23.83;;;;;;;-1.20;77.81;97867.19;1696801;84;25698;-61
2022/12/15 10:23:04;;;;;;;54.45;22.75;;;;;;;-1.20;77.72;97861.81;1694407;84;25723;-61
2022/12/15 10:25:31;;;;;;;49.50;22.67;;;;;;;-1.23;77.92;97859.64;1695827;84;25774;-63
2022/12/15 10:28:39;;;;;;;60.55;26.27;;;;;;;-1.26;76.91;97864.45;1698392;84;25734;-61
2022/12/15 10:31:32;;;;;;;67.47;28.73;;;;;;;-1.23;78.34;97862.33;1697476;84;27479;-63
2022/12/15 10:34:10;;;;;;;103.45;37.00;;;;;;;-1.03;78.35;97861.14;1698703;84;25612;-63
2022/12/15 10:36:36;;;;;;;64.37;25.25;;;;;;;-1.04;77.99;97867.59;1698360;84;25437;-61
2022/12/15 10:39:03;;;;;;;56.35;25.00;;;;;;;-0.92;78.59;97876.82;1698579;84;25705;-63
2022/12/15 10:41:32;;;;;;;66.35;26.55;;;;;;;-0.72;78.53;97859.75;1698348;84;25723;-63
2022/12/15 10:43:58;;;;;;;98.40;40.70;;;;;;;-0.71;77.64;97865.41;1698623;84;27450;-64
2022/12/15 10:46:28;;;;;;;55.98;24.57;;;;;;;-0.78;77.88;97870.47;1698205;84;25734;-64
2022/12/15 10:49:09;;;;;;;67.05;29.25;;;;;;;-0.71;78.43;97870.78;1698630;84;25434;-62
2022/12/15 10:51:46;;;;;;;59.85;26.25;;;;;;;-0.60;78.65;97864.41;1696479;84;25751;-63
2022/12/15 10:54:15;;;;;;;66.20;28.75;;;;;;;-0.57;78.19;97867.11;1698205;84;25782;-63
2022/12/15 10:57:00;;;;;;;63.15;27.48;;;;;;;-0.60;78.10;97862.24;1698580;84;27387;-64
2022/12/15 10:59:37;;;;;;;61.75;26.80;;;;;;;-0.59;77.72;97859.82;1674363;84;25460;-63
2022/12/15 11:02:26;;;;;;;59.67;27.50;;;;;;;-0.61;77.29;97871.40;1698519;84;25621;-65
2022/12/15 11:05:03;;;;;;;67.67;28.73;;;;;;;-0.58;77.51;97875.70;1697801;84;25779;-66
2022/12/15 11:07:40;;;;;;;76.95;32.85;;;;;;;-0.59;77.29;97878.12;1698818;84;25446;-64
2022/12/15 11:10:25;;;;;;;64.82;27.10;;;;;;;-0.58;77.28;97875.70;1699585;84;28058;-65
2022/12/15 11:13:15;;;;;;;69.97;33.13;;;;;;;-0.54;77.33;97882.21;1694018;84;25774;-63
2022/12/15 11:15:52;;;;;;;81.65;35.00;;;;;;;-0.41;78.18;97876.06;1699733;84;25449;-63
2022/12/15 11:18:38;;;;;;;206.25;59.85;;;;;;;-0.22;77.65;97883.19;1699219;84;25730;-64
2022/12/15 11:21:34;;;;;;;180.75;54.63;;;;;;;-0.09;77.20;97885.92;1699451;84;25434;-64
2022/12/15 11:24:41;;;;;;;54.98;24.27;;;;;;;-0.01;77.62;97881.39;1695414;84;29434;-66
2022/12/15 11:27:16;;;;;;;90.45;30.88;;;;;;;0.01;76.96;97893.77;1691509;84;25469;-64
2022/12/15 11:30:06;;;;;;;53.23;22.80;;;;;;;0.05;77.35;97894.33;1699173;84;25434;-64
2022/12/15 11:32:36;;;;;;;47.78;21.37;;;;;;;0.11;76.87;97891.94;1699253;84;27777;-64
2022/12/15 11:35:03;;;;;;;46.40;22.48;;;;;;;0.04;75.32;97885.98;1699465;84;25682;-65
2022/12/15 11:37:46;;;;;;;56.08;25.23;;;;;;;-0.10;75.19;97893.73;1676862;84;27406;-65
2022/12/15 11:40:30;;;;;;;45.43;20.65;;;;;;;-0.19;76.42;97906.08;1699333;84;25856;-64
2022/12/15 11:43:31;;;;;;;45.25;21.55;;;;;;;-0.19;76.05;97902.04;1699468;84;25676;-65
2022/12/15 11:46:24;;;;;;;53.35;24.52;;;;;;;-0.26;75.74;97908.99;1699087;84;25776;-63
2022/12/15 11:49:02;;;;;;;57.10;25.52;;;;;;;-0.39;76.12;97911.63;1699544;84;25660;-64
2022/12/15 11:51:56;;;;;;;57.23;27.02;;;;;;;-0.29;77.02;97913.02;1698904;84;27477;-65
2022/12/15 11:54:42;;;;;;;52.83;23.60;;;;;;;-0.25;76.51;97909.28;1699184;84;25660;-68
2022/12/15 11:57:26;;;;;;;60.35;27.05;;;;;;;-0.24;76.72;97916.28;1698853;84;25707;-67
2022/12/15 12:00:14;;;;;;;66.22;26.52;;;;;;;-0.21;76.72;97914.94;1697267;84;25676;-64
2022/12/15 12:03:10;;;;;;;56.55;24.27;;;;;;;-0.28;76.34;97918.70;1698661;84;25646;-64
2022/12/15 12:05:45;;;;;;;62.00;27.80;;;;;;;-0.23;76.83;97922.49;1698313;84;27493;-65
2022/12/15 12:08:32;;;;;;;65.05;28.38;;;;;;;-0.32;76.15;97926.22;1676919;84;25874;-64
2022/12/15 12:11:34;;;;;;;65.20;27.82;;;;;;;-0.52;76.78;97920.95;1698841;84;25588;-65
2022/12/15 12:14:38;;;;;;;67.67;28.40;;;;;;;-0.52;77.13;97912.35;1698349;84;27894;-65
2022/12/15 12:17:26;;;;;;;62.50;29.25;;;;;;;-0.59;77.06;97901.01;1698341;84;25711;-66
2022/12/15 12:19:59;;;;;;;61.92;26.55;;;;;;;-0.59;76.71;97900.19;1698278;84;27344;-65
2022/12/15 12:22:39;;;;;;;55.20;26.85;;;;;;;-0.58;77.12;97899.93;1697856;84;25510;-66
2022/12/15 12:25:17;;;;;;;60.50;26.82;;;;;;;-0.62;76.98;97893.98;1698247;84;25630;-66
2022/12/15 12:28:00;;;;;;;53.55;24.98;;;;;;;-0.66;76.67;97889.66;1698002;84;25920;-67
2022/12/15 12:30:35;;;;;;;56.25;25.12;;;;;;;-0.69;76.63;97895.56;1696718;84;25751;-67
2022/12/15 12:33:10;;;;;;;60.60;27.65;;;;;;;-0.74;77.13;97901.72;1697834;84;27645;-68
2022/12/15 12:35:41;;;;;;;61.18;28.65;;;;;;;-0.69;77.61;97919.23;1698562;84;25595;-68
2022/12/15 12:38:12;;;;;;;71.02;29.85;;;;;;;-0.62;77.58;97922.23;1698237;84;25422;-70
2022/12/15 12:40:53;;;;;;;73.02;30.62;;;;;;;-0.52;77.83;97934.41;1698340;84;25746;-70
2022/12/15 12:43:45;;;;;;;68.67;29.12;;;;;;;-0.41;78.13;97928.56;1698546;84;25699;-70
2022/12/15 12:46:41;;;;;;;72.40;31.87;;;;;;;-0.33;77.72;97931.30;1697794;84;27471;-71
2022/12/15 12:49:29;;;;;;;71.07;29.00;;;;;;;-0.31;77.36;97929.17;1698340;84;25506;-71
2022/12/15 12:52:00;;;;;;;65.60;28.80;;;;;;;-0.49;77.15;97922.34;1698357;84;25656;-70
2022/12/15 12:54:37;;;;;;;109.87;38.08;;;;;;;-0.62;77.70;97906.09;1698942;84;25842;-70
2022/12/15 12:57:16;;;;;;;89.00;35.23;;;;;;;-0.69;78.12;97890.18;1698831;84;25477;-70
2022/12/15 13:00:09;;;;;;;71.53;29.27;;;;;;;-0.76;77.94;97897.94;1698781;84;27546;-71
2022/12/15 13:02:40;;;;;;;63.65;27.55;;;;;;;-0.80;77.93;97904.09;1698870;84;25925;-71
2022/12/15 13:05:31;;;;;;;63.75;27.73;;;;;;;-0.83;77.70;97891.16;1677258;84;25650;-71
2022/12/15 13:08:08;;;;;;;76.28;29.95;;;;;;;-0.90;77.47;97896.74;1699592;84;25696;-71
2022/12/15 13:10:44;;;;;;;155.07;40.45;;;;;;;-1.01;77.93;97898.53;1699714;84;25423;-70
2022/12/15 13:13:43;;;;;;;132.10;40.28;;;;;;;-1.05;77.99;97902.28;1699510;84;28093;-71
2022/12/15 13:16:27;;;;;;;66.97;27.05;;;;;;;-1.09;78.32;97907.09;1699055;84;25934;-71
2022/12/15 13:19:02;;;;;;;74.50;30.08;;;;;;;-1.20;78.70;97902.97;1699626;84;25684;-71
2022/12/15 13:21:53;;;;;;;61.55;24.40;;;;;;;-1.21;78.92;97899.98;1699075;84;26657;-71
2022/12/15 13:24:42;;;;;;;63.92;29.10;;;;;;;-1.28;78.94;97905.58;1699684;84;25603;-71
2022/12/15 13:27:15;;;;;;;60.83;26.90;;;;;;;-1.38;79.43;97912.21;1698846;84;27390;-71
2022/12/15 13:30:08;;;;;;;68.67;29.35;;;;;;;-1.36;79.83;97919.47;1697223;84;25624;-71
2022/12/15 13:32:50;;;;;;;75.22;30.45;;;;;;;-1.37;79.80;97911.14;1698872;84;25619;-72
2022/12/15 13:35:25;;;;;;;73.37;29.20;;;;;;;-1.32;80.03;97910.38;1699225;84;25746;-72
2022/12/15 13:38:02;;;;;;;61.00;23.30;;;;;;;-1.30;80.01;97906.88;1697759;84;25708;-71
2022/12/15 13:41:01;;;;;;;79.05;31.70;;;;;;;-1.33;79.81;97913.59;1699442;84;28046;-72
2022/12/15 13:43:33;;;;;;;61.25;27.10;;;;;;;-1.32;80.23;97923.81;1699150;84;25484;-71
2022/12/15 13:46:09;;;;;;;69.47;29.65;;;;;;;-1.35;80.09;97945.83;1699269;84;25450;-71
2022/12/15 13:48:56;;;;;;;64.47;25.50;;;;;;;-1.33;80.25;97948.53;1699592;84;25763;-71
2022/12/15 13:51:42;;;;;;;81.85;30.92;;;;;;;-1.40;80.26;97946.58;1698153;84;25418;-72
2022/12/15 13:54:25;;;;;;;86.55;32.95;;;;;;;-1.46;80.56;97947.59;1699406;84;28291;-71
2022/12/15 13:57:02;;;;;;;202.13;58.48;;;;;;;-1.50;80.98;97964.73;1699342;84;25672;-70
2022/12/15 13:59:41;;;;;;;113.03;39.58;;;;;;;-1.53;81.03;97975.47;1699497;84;25605;-69
2022/12/15 14:02:32;;;;;;;86.17;35.05;;;;;;;-1.52;81.13;97997.79;1699136;84;25637;-70
2022/12/15 14:05:24;;;;;;;97.10;36.95;;;;;;;-1.52;81.36;98002.61;1699752;84;25426;-70
2022/12/15 14:07:57;;;;;;;79.80;33.88;;;;;;;-1.46;81.31;98010.23;1699441;84;25645;-69
2022/12/15 14:10:40;;;;;;;85.25;37.88;;;;;;;-1.39;81.28;98015.39;1699016;84;25713;-69
2022/12/15 14:13:34;;;;;;;82.17;34.23;;;;;;;-1.35;81.08;98023.26;1699506;84;25611;-68
2022/12/15 14:16:06;;;;;;;82.08;35.38;;;;;;;-1.32;81.22;98028.66;1699554;84;25782;-68